Time;durP1;ratioP1;P1;durP2;ratioP2;P2;SDS_P1;SDS_P2;PMS_P1;PMS_P2;Temp;Humidity;BMP_temperature;BMP_pressure;BME280_temperature;BME280_humidity;BME280_pressure;Samples;Min_cycle;Max_cycle;Signal;HPM_P1;HPM_P2
2022/02/11 00:07:59;;;;;;;29.90;15.95;;;;;;;;;;4876166;29;20064;-71
2022/02/11 00:10:26;;;;;;;29.23;14.38;;;;;;;;;;4880801;29;20072;-72
2022/02/11 00:12:53;;;;;;;26.75;14.15;;;;;;;;;;4880642;29;20041;-73
2022/02/11 00:17:54;;;;;;;23.63;13.30;;;;;;;;;;4881122;29;20048;-73
2022/02/11 00:20:22;;;;;;;19.70;12.48;;;;;;;;;;4882603;29;20081;-72
2022/02/11 00:22:48;;;;;;;19.77;11.90;;;;;;;;;;4880711;29;20461;-72
2022/02/11 00:25:16;;;;;;;20.05;12.30;;;;;;;;;;4881664;29;20048;-71
2022/02/11 00:31:02;;;;;;;24.30;12.88;;;;;;;;;;4881711;29;20041;-72
2022/02/11 00:33:30;;;;;;;22.95;12.73;;;;;;;;;;4879996;29;20052;-71
2022/02/11 00:36:02;;;;;;;23.25;13.18;;;;;;;;;;4881160;29;20124;-71
2022/02/11 01:03:18;;;;;;;28.65;14.77;;;;;;;;;;4880131;29;20072;-72
2022/02/11 01:05:46;;;;;;;24.92;14.60;;;;;;;;;;4882068;29;20483;-72
2022/02/11 01:08:12;;;;;;;26.00;14.15;;;;;;;;;;4867139;29;20123;-72
2022/02/11 01:10:39;;;;;;;23.48;13.93;;;;;;;;;;4879719;29;20115;-72
2022/02/11 01:13:05;;;;;;;27.83;14.15;;;;;;;;;;4879489;29;20041;-72
2022/02/11 01:15:34;;;;;;;23.50;12.77;;;;;;;;;;4880371;29;20028;-72
2022/02/11 01:18:03;;;;;;;25.25;12.55;;;;;;;;;;4867149;29;20050;-72
2022/02/11 01:23:34;;;;;;;25.80;13.32;;;;;;;;;;4923793;28;20054;-73
2022/02/11 01:29:30;;;;;;;25.70;13.45;;;;;;;;;;4975522;28;20503;-72
2022/02/11 01:34:23;;;;;;;25.35;13.73;;;;;;;;;;4977328;28;20472;-72
2022/02/11 01:40:10;;;;;;;22.20;12.77;;;;;;;;;;4979031;28;20027;-72
2022/02/11 02:09:30;;;;;;;17.75;9.55;;;;;;;;;;4956913;28;20204;-72
2022/02/11 02:17:26;;;;;;;19.40;10.43;;;;;;;;;;4955484;29;20610;-72
2022/02/11 02:27:46;;;;;;;22.42;10.43;;;;;;;;;;4955267;29;20038;-72
2022/02/11 02:36:24;;;;;;;23.75;10.63;;;;;;;;;;4954012;29;20776;-72
2022/02/11 02:58:07;;;;;;;38.58;16.17;;;;;;;;;;4999661;28;20077;-72
2022/02/11 03:01:35;;;;;;;39.30;16.27;;;;;;;;;;5001023;28;20022;-71
2022/02/11 03:49:49;;;;;;;27.05;12.35;;;;;;;;;;4980195;28;20124;-72
2022/02/11 04:56:55;;;;;;;20.38;10.50;;;;;;;;;;4995354;28;20133;-73
2022/02/11 05:02:00;;;;;;;20.05;11.65;;;;;;;;;;4994179;28;20561;-74
2022/02/11 05:04:26;;;;;;;18.52;10.20;;;;;;;;;;4996537;28;20030;-74
2022/02/11 05:06:52;;;;;;;20.95;8.98;;;;;;;;;;4993313;28;20073;-73
2022/02/11 05:09:18;;;;;;;25.10;9.50;;;;;;;;;;4995608;28;20072;-74
2022/02/11 05:11:44;;;;;;;17.75;8.65;;;;;;;;;;4995091;28;20026;-73
2022/02/11 05:14:11;;;;;;;17.42;8.93;;;;;;;;;;4995070;28;20026;-75
2022/02/11 05:16:37;;;;;;;18.25;8.50;;;;;;;;;;4980521;28;20033;-73
2022/02/11 05:19:03;;;;;;;21.50;9.02;;;;;;;;;;4996504;28;20062;-75
2022/02/11 05:21:29;;;;;;;17.52;8.63;;;;;;;;;;4996288;28;20080;-73
2022/02/11 05:23:58;;;;;;;16.52;8.30;;;;;;;;;;4995011;28;20026;-74
2022/02/11 05:26:24;;;;;;;20.90;9.63;;;;;;;;;;5000163;28;20039;-78
2022/02/11 05:28:50;;;;;;;18.60;9.32;;;;;;;;;;4996823;28;20041;-71
2022/02/11 05:31:16;;;;;;;19.30;10.35;;;;;;;;;;4996034;28;20026;-72
2022/02/11 05:33:42;;;;;;;22.80;11.52;;;;;;;;;;4996975;28;20034;-74
2022/02/11 05:36:10;;;;;;;21.45;11.50;;;;;;;;;;4993799;28;20023;-72
2022/02/11 05:38:37;;;;;;;19.13;9.88;;;;;;;;;;4977876;28;20507;-71
2022/02/11 05:41:03;;;;;;;19.80;9.48;;;;;;;;;;4996246;28;20021;-73
2022/02/11 05:43:31;;;;;;;20.92;8.25;;;;;;;;;;4981026;28;20110;-73
2022/02/11 05:46:04;;;;;;;17.58;8.63;;;;;;;;;;5003670;28;20057;-73
2022/02/11 05:48:30;;;;;;;16.40;8.52;;;;;;;;;;5005454;28;20015;-75
2022/02/11 05:51:05;;;;;;;17.90;8.45;;;;;;;;;;4994135;28;20072;-73
2022/02/11 05:53:31;;;;;;;18.25;8.93;;;;;;;;;;4978693;28;20042;-72
2022/02/11 05:55:57;;;;;;;31.52;14.25;;;;;;;;;;5003392;28;20034;-73
2022/02/11 05:58:23;;;;;;;37.72;15.30;;;;;;;;;;5003685;28;20022;-73
2022/02/11 06:00:53;;;;;;;40.35;15.98;;;;;;;;;;5003506;28;20510;-73
2022/02/11 06:03:19;;;;;;;48.28;17.15;;;;;;;;;;5001516;28;20122;-73
2022/02/11 06:05:45;;;;;;;71.78;23.27;;;;;;;;;;4984587;28;20027;-74
2022/02/11 06:08:12;;;;;;;78.35;24.90;;;;;;;;;;5000161;28;20082;-76
2022/02/11 06:10:39;;;;;;;31.83;12.85;;;;;;;;;;5003476;28;20468;-76
2022/02/11 06:13:05;;;;;;;26.58;12.30;;;;;;;;;;4997233;28;20093;-75
2022/02/11 06:15:31;;;;;;;31.42;13.70;;;;;;;;;;4997870;28;20109;-74
2022/02/11 06:17:57;;;;;;;28.48;14.13;;;;;;;;;;4996399;28;20093;-76
2022/02/11 06:20:28;;;;;;;30.10;15.85;;;;;;;;;;4997141;28;20031;-75
2022/02/11 06:22:54;;;;;;;33.15;17.63;;;;;;;;;;4998165;28;20038;-75
2022/02/11 06:25:20;;;;;;;40.85;18.08;;;;;;;;;;4994041;28;20027;-75
2022/02/11 06:27:46;;;;;;;29.48;16.40;;;;;;;;;;5000084;28;20056;-76
2022/02/11 06:30:13;;;;;;;30.63;15.85;;;;;;;;;;5002957;28;20026;-76
2022/02/11 06:32:42;;;;;;;27.90;13.05;;;;;;;;;;5011119;28;20026;-75
2022/02/11 06:35:12;;;;;;;26.20;11.85;;;;;;;;;;5004468;28;20058;-76
2022/02/11 06:37:44;;;;;;;22.58;10.48;;;;;;;;;;5012576;28;20087;-76
2022/02/11 06:40:11;;;;;;;31.80;15.82;;;;;;;;;;4989976;28;20033;-77
2022/02/11 06:42:37;;;;;;;28.45;11.95;;;;;;;;;;5001511;28;20030;-77
2022/02/11 06:45:04;;;;;;;25.25;11.15;;;;;;;;;;5000876;28;20022;-77
2022/02/11 06:50:23;;;;;;;25.63;13.98;;;;;;;;;;5077025;23;20073;-75
2022/02/11 06:52:49;;;;;;;25.13;12.75;;;;;;;;;;4944801;28;20039;-76
2022/02/11 06:55:16;;;;;;;26.33;12.73;;;;;;;;;;4964218;28;20031;-76
2022/02/11 06:57:44;;;;;;;19.20;11.00;;;;;;;;;;4943911;28;20027;-77
2022/02/11 07:00:12;;;;;;;25.77;12.43;;;;;;;;;;4974395;28;20025;-77
2022/02/11 07:02:39;;;;;;;24.80;14.90;;;;;;;;;;4968502;28;20026;-79
2022/02/11 07:05:05;;;;;;;24.42;11.95;;;;;;;;;;4971767;28;20056;-75
2022/02/11 07:07:32;;;;;;;18.50;9.48;;;;;;;;;;4969278;28;20078;-82
2022/02/11 07:09:58;;;;;;;15.32;8.82;;;;;;;;;;4967695;28;20085;-88
2022/02/11 07:12:24;;;;;;;21.10;13.65;;;;;;;;;;4959888;28;20047;-87
2022/02/11 07:14:50;;;;;;;22.45;11.10;;;;;;;;;;4961737;28;20123;-85
2022/02/11 07:17:16;;;;;;;19.98;8.50;;;;;;;;;;4962673;28;20045;-82
2022/02/11 07:19:42;;;;;;;18.38;7.95;;;;;;;;;;4960484;28;20035;-76
2022/02/11 07:22:08;;;;;;;19.85;7.25;;;;;;;;;;4958623;28;20118;-82
2022/02/11 07:24:34;;;;;;;25.15;8.93;;;;;;;;;;4945688;28;20023;-80
2022/02/11 07:27:00;;;;;;;21.92;9.48;;;;;;;;;;4936824;28;20032;-82
2022/02/11 07:29:27;;;;;;;31.08;15.35;;;;;;;;;;4940862;29;20163;-83
2022/02/11 07:31:53;;;;;;;37.10;21.77;;;;;;;;;;4934548;29;20032;-81
2022/02/11 07:34:19;;;;;;;38.97;17.52;;;;;;;;;;4938708;29;20557;-81
2022/02/11 07:36:45;;;;;;;27.23;13.68;;;;;;;;;;4931012;29;20055;-76
2022/02/11 07:39:11;;;;;;;20.23;10.48;;;;;;;;;;4948025;29;20082;-74
2022/02/11 07:41:38;;;;;;;25.70;11.93;;;;;;;;;;4953758;29;20174;-78
2022/02/11 07:44:04;;;;;;;36.38;23.75;;;;;;;;;;4943586;29;20031;-76
2022/02/11 07:46:30;;;;;;;60.72;45.08;;;;;;;;;;4947573;28;20023;-79
2022/02/11 07:48:56;;;;;;;49.55;35.75;;;;;;;;;;4951878;28;20035;-84
2022/02/11 07:51:23;;;;;;;25.50;15.18;;;;;;;;;;4969514;28;20113;-78
2022/02/11 07:53:49;;;;;;;23.52;12.23;;;;;;;;;;4975891;28;20484;-79
2022/02/11 07:56:15;;;;;;;26.92;18.25;;;;;;;;;;4971696;28;20051;-79
2022/02/11 07:58:42;;;;;;;23.85;13.38;;;;;;;;;;4984193;28;20035;-80
2022/02/11 08:01:09;;;;;;;14.43;8.48;;;;;;;;;;4952319;28;20174;-80
2022/02/11 08:03:36;;;;;;;19.42;8.63;;;;;;;;;;4969444;28;20105;-77
2022/02/11 08:06:02;;;;;;;11.68;6.30;;;;;;;;;;4978434;28;20038;-79
2022/02/11 08:08:31;;;;;;;18.27;7.85;;;;;;;;;;4959401;28;20069;-81
2022/02/11 08:10:57;;;;;;;14.95;7.35;;;;;;;;;;4964979;28;20035;-78
2022/02/11 08:13:23;;;;;;;13.65;6.40;;;;;;;;;;4976825;28;20027;-77
2022/02/11 08:15:50;;;;;;;16.25;7.47;;;;;;;;;;4969512;28;20038;-79
2022/02/11 08:18:16;;;;;;;12.55;5.90;;;;;;;;;;4973180;28;20102;-79
2022/02/11 08:20:42;;;;;;;13.25;6.20;;;;;;;;;;4977955;28;20043;-79
2022/02/11 08:23:08;;;;;;;16.00;6.35;;;;;;;;;;4973347;28;20555;-82
2022/02/11 08:25:34;;;;;;;14.10;6.70;;;;;;;;;;4968478;28;20037;-81
2022/02/11 08:28:01;;;;;;;21.65;8.02;;;;;;;;;;4950274;28;20082;-80
2022/02/11 08:30:27;;;;;;;23.80;8.48;;;;;;;;;;4979755;28;20027;-80
2022/02/11 08:32:53;;;;;;;17.45;7.20;;;;;;;;;;4971991;28;20067;-78
2022/02/11 08:35:19;;;;;;;16.50;6.63;;;;;;;;;;4972017;28;20031;-78
2022/02/11 08:37:45;;;;;;;25.48;9.82;;;;;;;;;;4984317;28;20077;-77
2022/02/11 08:40:11;;;;;;;38.78;10.82;;;;;;;;;;4954868;28;20039;-74
2022/02/11 08:42:37;;;;;;;25.33;9.80;;;;;;;;;;4973883;28;20421;-75
2022/02/11 08:45:04;;;;;;;21.88;9.63;;;;;;;;;;4977612;28;20039;-78
2022/02/11 08:47:32;;;;;;;29.50;10.27;;;;;;;;;;4973075;28;20027;-79
2022/02/11 08:49:59;;;;;;;25.27;12.57;;;;;;;;;;4977252;28;20492;-81
2022/02/11 08:52:25;;;;;;;30.50;15.32;;;;;;;;;;4971877;28;20022;-84
2022/02/11 08:54:52;;;;;;;20.27;9.20;;;;;;;;;;4967299;28;20030;-84
2022/02/11 08:57:18;;;;;;;20.13;9.75;;;;;;;;;;4972262;28;20058;-82
2022/02/11 08:59:44;;;;;;;23.58;11.40;;;;;;;;;;4973025;28;20052;-85
2022/02/11 09:02:14;;;;;;;24.33;10.23;;;;;;;;;;4959159;28;20089;-80
2022/02/11 09:04:46;;;;;;;33.28;17.25;;;;;;;;;;4972929;28;20042;-76
2022/02/11 09:07:16;;;;;;;26.77;11.48;;;;;;;;;;4978075;28;20008;-77
2022/02/11 09:09:47;;;;;;;22.15;10.27;;;;;;;;;;4966326;28;20108;-76
2022/02/11 09:12:13;;;;;;;18.95;7.68;;;;;;;;;;4988473;28;20412;-77
2022/02/11 09:14:39;;;;;;;22.38;10.10;;;;;;;;;;4977775;28;20027;-76
2022/02/11 09:17:05;;;;;;;24.13;11.23;;;;;;;;;;4977622;28;20033;-77
2022/02/11 09:19:32;;;;;;;20.25;7.65;;;;;;;;;;4972634;28;20098;-77
2022/02/11 09:21:59;;;;;;;22.98;8.77;;;;;;;;;;4972525;28;20074;-77
2022/02/11 09:24:25;;;;;;;78.95;37.20;;;;;;;;;;4965129;28;20054;-74
2022/02/11 09:26:51;;;;;;;37.58;12.95;;;;;;;;;;4977465;28;20043;-77
2022/02/11 09:29:17;;;;;;;63.05;33.30;;;;;;;;;;4982465;28;20026;-77
2022/02/11 09:31:43;;;;;;;28.02;10.98;;;;;;;;;;4983030;28;20027;-77
2022/02/11 09:34:12;;;;;;;44.85;21.95;;;;;;;;;;4964460;28;20110;-75
2022/02/11 09:36:39;;;;;;;17.80;6.63;;;;;;;;;;4966826;28;20042;-76
2022/02/11 09:39:06;;;;;;;19.17;7.60;;;;;;;;;;4981952;28;20150;-76
2022/02/11 09:41:36;;;;;;;17.13;5.95;;;;;;;;;;4986490;28;20499;-74
2022/02/11 09:44:04;;;;;;;14.65;5.25;;;;;;;;;;4967868;28;20031;-74
2022/02/11 09:46:36;;;;;;;17.77;6.60;;;;;;;;;;4980961;28;20031;-72
2022/02/11 09:49:07;;;;;;;17.95;5.68;;;;;;;;;;4989792;28;20030;-77
2022/02/11 09:51:36;;;;;;;13.27;5.03;;;;;;;;;;4988879;28;20401;-75
2022/02/11 10:01:50;;;;;;;24.25;5.57;;;;;;;;;;5429483;23;20026;-75
2022/02/11 10:09:28;;;;;;;13.90;3.47;;;;;;;;;;5398938;23;20056;-76
2022/02/11 10:12:36;;;;;;;17.13;4.70;;;;;;;;;;5007780;28;20102;-79
2022/02/11 10:15:27;;;;;;;11.63;5.30;;;;;;;;;;5030800;28;20025;-79
2022/02/11 10:17:57;;;;;;;14.77;3.67;;;;;;;;;;5031378;28;20048;-74
2022/02/11 10:20:53;;;;;;;13.23;4.10;;;;;;;;;;4997716;28;20050;-79
2022/02/11 10:23:41;;;;;;;16.05;4.50;;;;;;;;;;4999203;28;20479;-77
2022/02/11 10:26:13;;;;;;;14.10;4.65;;;;;;;;;;5009821;28;20111;-74
2022/02/11 10:28:40;;;;;;;14.77;4.80;;;;;;;;;;5004514;28;20025;-75
2022/02/11 10:31:08;;;;;;;14.55;7.15;;;;;;;;;;5002524;28;20025;-77
2022/02/11 10:33:49;;;;;;;11.32;4.10;;;;;;;;;;4981624;28;20435;-76
2022/02/11 10:36:16;;;;;;;11.18;3.60;;;;;;;;;;5000016;28;20085;-76
2022/02/11 10:38:42;;;;;;;13.90;3.63;;;;;;;;;;4997014;28;20053;-76
2022/02/11 10:41:08;;;;;;;18.83;5.30;;;;;;;;;;5004903;28;20064;-75
2022/02/11 10:43:35;;;;;;;16.08;3.85;;;;;;;;;;5003530;28;20034;-78
2022/02/11 10:46:02;;;;;;;11.20;3.67;;;;;;;;;;4987625;28;20019;-76
2022/02/11 10:48:34;;;;;;;10.57;4.13;;;;;;;;;;4997851;28;20026;-76
2022/02/11 10:51:04;;;;;;;10.10;3.60;;;;;;;;;;5000445;28;20018;-77
2022/02/11 10:53:31;;;;;;;9.77;4.13;;;;;;;;;;5011071;28;20014;-76
2022/02/11 10:56:21;;;;;;;14.95;4.30;;;;;;;;;;5012988;28;20015;-77
2022/02/11 11:09:38;;;;;;;10.95;3.58;;;;;;;;;;5068905;23;20050;-74
2022/02/11 11:12:05;;;;;;;12.10;3.90;;;;;;;;;;5007312;28;20061;-76
2022/02/11 11:14:31;;;;;;;12.73;4.40;;;;;;;;;;4989281;28;20026;-75
2022/02/11 11:16:58;;;;;;;9.77;4.00;;;;;;;;;;4989036;28;20038;-74
2022/02/11 11:19:25;;;;;;;12.63;4.30;;;;;;;;;;4981123;28;20469;-74
2022/02/11 11:22:10;;;;;;;12.13;3.97;;;;;;;;;;4984165;28;20034;-75
2022/02/11 11:24:52;;;;;;;11.25;3.97;;;;;;;;;;4973925;28;20038;-76
2022/02/11 11:27:37;;;;;;;8.85;3.83;;;;;;;;;;4973984;28;20086;-77
2022/02/11 11:33:11;;;;;;;15.20;5.22;;;;;;;;;;5048548;23;19929;-78
2022/02/11 11:36:31;;;;;;;9.13;4.10;;;;;;;;;;4916263;29;20027;-77
2022/02/11 11:39:01;;;;;;;15.25;4.20;;;;;;;;;;4916606;29;20076;-79
2022/02/11 11:41:33;;;;;;;12.25;3.67;;;;;;;;;;4913383;29;20055;-78
2022/02/11 11:44:01;;;;;;;15.00;5.05;;;;;;;;;;4914494;29;20044;-76
2022/02/11 11:46:30;;;;;;;12.10;4.30;;;;;;;;;;4914365;29;20044;-76
2022/02/11 11:48:59;;;;;;;10.60;4.22;;;;;;;;;;4912464;29;20072;-75
2022/02/11 11:51:30;;;;;;;13.43;4.45;;;;;;;;;;4911237;29;20064;-76
2022/02/11 11:54:14;;;;;;;8.25;3.70;;;;;;;;;;4907254;29;20076;-76
2022/02/11 11:56:43;;;;;;;13.00;4.40;;;;;;;;;;4890057;29;20040;-78
2022/02/11 11:59:20;;;;;;;11.25;3.95;;;;;;;;;;4895881;29;20111;-78
2022/02/11 12:02:07;;;;;;;8.20;3.85;;;;;;;;;;4931667;29;20039;-78
2022/02/11 12:07:34;;;;;;;9.48;4.07;;;;;;;;;;4999045;26;20050;-76
2022/02/11 12:10:01;;;;;;;9.60;4.78;;;;;;;;;;4996208;28;20038;-77
2022/02/11 12:12:29;;;;;;;14.50;3.83;;;;;;;;;;4982383;28;20022;-78
2022/02/11 12:14:58;;;;;;;14.52;4.85;;;;;;;;;;5001914;28;20105;-77
2022/02/11 12:17:27;;;;;;;11.43;4.00;;;;;;;;;;4999711;28;20092;-77
2022/02/11 12:19:54;;;;;;;13.57;3.90;;;;;;;;;;4987577;28;20058;-77
2022/02/11 12:22:22;;;;;;;12.00;4.35;;;;;;;;;;4982301;28;20512;-78
2022/02/11 12:27:36;;;;;;;12.65;4.15;;;;;;;;;;4969776;28;20045;-77
2022/02/11 12:30:06;;;;;;;12.73;6.28;;;;;;;;;;4986503;28;20023;-79
2022/02/11 12:32:43;;;;;;;15.00;4.93;;;;;;;;;;4966407;28;20034;-76
2022/02/11 12:35:11;;;;;;;10.13;3.88;;;;;;;;;;4981534;28;20027;-73
2022/02/11 12:37:39;;;;;;;10.85;4.32;;;;;;;;;;4975504;28;20023;-74
2022/02/11 12:40:10;;;;;;;9.52;3.88;;;;;;;;;;4974312;28;20031;-74
2022/02/11 12:42:38;;;;;;;11.68;4.30;;;;;;;;;;4974534;28;20042;-75
2022/02/11 12:45:05;;;;;;;20.08;9.10;;;;;;;;;;4974516;28;20053;-76
2022/02/11 12:47:34;;;;;;;46.70;23.10;;;;;;;;;;4974878;28;20022;-77
2022/02/11 12:50:01;;;;;;;17.48;7.13;;;;;;;;;;4976773;28;20455;-77
2022/02/11 12:52:29;;;;;;;10.02;4.70;;;;;;;;;;4976702;28;20050;-72
2022/02/11 12:55:16;;;;;;;19.98;12.40;;;;;;;;;;4981449;28;20027;-73
2022/02/11 12:58:01;;;;;;;11.27;5.60;;;;;;;;;;4975627;28;20027;-72
2022/02/11 13:00:38;;;;;;;19.60;13.32;;;;;;;;;;4986405;28;20031;-74
2022/02/11 13:03:05;;;;;;;14.00;4.35;;;;;;;;;;4990212;28;20034;-76
2022/02/11 13:05:37;;;;;;;10.07;4.93;;;;;;;;;;4988801;28;20054;-74
2022/02/11 13:08:07;;;;;;;9.18;5.15;;;;;;;;;;4981761;28;20106;-78
2022/02/11 13:10:35;;;;;;;13.80;6.65;;;;;;;;;;4984859;28;20035;-75
2022/02/11 13:13:03;;;;;;;11.18;5.70;;;;;;;;;;4983246;28;20034;-75
2022/02/11 13:15:49;;;;;;;12.90;6.80;;;;;;;;;;4973671;28;20039;-78
2022/02/11 13:18:17;;;;;;;18.63;10.50;;;;;;;;;;4985997;28;20023;-75
2022/02/11 13:21:04;;;;;;;14.32;6.45;;;;;;;;;;4930675;29;20042;-76
2022/02/11 13:23:36;;;;;;;13.63;4.93;;;;;;;;;;4931011;29;20047;-78
2022/02/11 13:26:42;;;;;;;12.60;6.88;;;;;;;;;;4900427;29;20072;-74
2022/02/11 13:29:13;;;;;;;12.73;5.82;;;;;;;;;;4883030;29;20048;-77
2022/02/11 13:31:46;;;;;;;13.43;5.32;;;;;;;;;;4879523;29;20052;-75
2022/02/11 13:34:12;;;;;;;9.20;4.28;;;;;;;;;;4881595;29;20029;-76
2022/02/11 13:36:40;;;;;;;9.20;4.28;;;;;;;;;;4882726;29;20049;-75
2022/02/11 13:39:07;;;;;;;9.05;3.90;;;;;;;;;;4881623;29;20062;-78
2022/02/11 13:41:38;;;;;;;10.85;4.38;;;;;;;;;;4889348;29;20065;-77
2022/02/11 13:44:09;;;;;;;9.32;4.32;;;;;;;;;;4885597;29;20509;-78
2022/02/11 13:46:42;;;;;;;13.50;6.10;;;;;;;;;;4871891;29;20210;-72
2022/02/11 13:49:18;;;;;;;11.38;4.65;;;;;;;;;;4879041;29;20040;-78
2022/02/11 13:53:01;;;;;;;15.95;4.20;;;;;;;;;;4882365;29;20048;-74
2022/02/11 13:54:33;;;;;;;8.35;3.97;;;;;;;;;;4877448;29;20558;-74
2022/02/11 13:57:00;;;;;;;11.88;4.93;;;;;;;;;;4893953;28;20386;-75
2022/02/11 13:59:27;;;;;;;9.68;4.45;;;;;;;;;;4960550;28;20040;-74
2022/02/11 14:02:03;;;;;;;11.82;4.22;;;;;;;;;;4977633;28;20030;-76
2022/02/11 14:04:33;;;;;;;8.90;3.75;;;;;;;;;;4973698;28;20026;-75
2022/02/11 14:07:00;;;;;;;9.48;4.88;;;;;;;;;;4976673;28;20038;-75
2022/02/11 14:10:00;;;;;;;10.13;4.13;;;;;;;;;;4980370;28;20025;-76
2022/02/11 14:12:33;;;;;;;9.85;3.92;;;;;;;;;;4982939;28;20026;-75
2022/02/11 14:15:05;;;;;;;12.57;4.10;;;;;;;;;;4991992;28;20015;-78
2022/02/11 14:17:33;;;;;;;10.82;4.35;;;;;;;;;;4989897;28;20109;-78
2022/02/11 14:19:59;;;;;;;15.00;6.75;;;;;;;;;;4989329;28;20027;-79
2022/02/11 14:22:47;;;;;;;10.43;4.50;;;;;;;;;;4975213;28;20039;-74
2022/02/11 14:25:33;;;;;;;13.45;4.90;;;;;;;;;;4959374;28;20039;-80
2022/02/11 14:27:59;;;;;;;11.35;4.43;;;;;;;;;;4915890;29;20033;-77
2022/02/11 14:30:28;;;;;;;8.65;4.07;;;;;;;;;;4914555;29;20033;-78
2022/02/11 14:32:59;;;;;;;12.00;4.35;;;;;;;;;;4916067;29;20093;-79
2022/02/11 14:35:26;;;;;;;11.80;5.32;;;;;;;;;;4905127;29;20149;-78
2022/02/11 14:37:55;;;;;;;16.55;5.80;;;;;;;;;;4909289;29;20068;-79
2022/02/11 14:40:21;;;;;;;12.80;5.80;;;;;;;;;;4912076;29;20088;-78
2022/02/11 14:42:48;;;;;;;12.38;5.50;;;;;;;;;;4909662;29;20136;-77
2022/02/11 14:45:14;;;;;;;13.48;5.75;;;;;;;;;;4906035;29;20036;-76
2022/02/11 14:47:40;;;;;;;12.23;5.50;;;;;;;;;;4904343;29;20041;-78
2022/02/11 14:50:09;;;;;;;15.57;6.80;;;;;;;;;;4892854;29;20068;-78
2022/02/11 14:52:35;;;;;;;16.42;6.72;;;;;;;;;;4904661;29;20063;-76
2022/02/11 14:55:01;;;;;;;15.35;6.18;;;;;;;;;;4901678;29;20044;-76
2022/02/11 14:57:29;;;;;;;13.30;6.97;;;;;;;;;;4936196;29;20115;-76
2022/02/11 14:59:55;;;;;;;19.42;9.32;;;;;;;;;;4937365;29;20142;-76
2022/02/11 15:02:21;;;;;;;19.25;8.75;;;;;;;;;;4937206;29;20115;-75
2022/02/11 15:04:48;;;;;;;14.13;7.00;;;;;;;;;;4939044;29;20040;-76
2022/02/11 15:07:14;;;;;;;21.88;12.02;;;;;;;;;;4939312;29;20146;-75
2022/02/11 15:09:40;;;;;;;14.85;7.78;;;;;;;;;;4939964;29;20040;-76
2022/02/11 15:12:09;;;;;;;26.02;12.40;;;;;;;;;;4964604;28;20287;-75
2022/02/11 15:14:35;;;;;;;16.85;7.28;;;;;;;;;;4985220;28;20377;-76
2022/02/11 15:17:01;;;;;;;20.23;8.45;;;;;;;;;;4981487;28;20562;-76
2022/02/11 15:19:27;;;;;;;19.23;10.95;;;;;;;;;;4980103;28;20382;-78
2022/02/11 15:21:55;;;;;;;38.08;17.70;;;;;;;;;;4960537;28;20066;-79
2022/02/11 15:24:26;;;;;;;138.10;52.25;;;;;;;;;;4953781;28;20444;-79
2022/02/11 15:26:52;;;;;;;141.05;51.13;;;;;;;;;;4978632;28;20062;-78
2022/02/11 15:32:15;;;;;;;24.02;10.63;;;;;;;;;;5084073;23;20082;-74
2022/02/11 15:34:41;;;;;;;23.27;8.82;;;;;;;;;;4999049;28;20510;-74
2022/02/11 15:37:07;;;;;;;130.98;50.53;;;;;;;;;;5001024;28;20501;-76
2022/02/11 15:39:39;;;;;;;69.18;34.35;;;;;;;;;;5005538;28;20489;-74
2022/02/11 15:42:07;;;;;;;59.72;25.67;;;;;;;;;;5006094;28;21566;-76
2022/02/11 15:44:34;;;;;;;76.32;39.10;;;;;;;;;;5000254;28;20045;-79
2022/02/11 15:47:00;;;;;;;23.55;11.65;;;;;;;;;;5004980;28;20388;-78
2022/02/11 15:49:26;;;;;;;17.02;8.50;;;;;;;;;;4995163;28;20392;-76
2022/02/11 15:51:53;;;;;;;16.92;8.13;;;;;;;;;;5000198;28;20053;-72
2022/02/11 15:54:19;;;;;;;16.33;6.53;;;;;;;;;;4999869;28;21678;-69
2022/02/11 15:56:45;;;;;;;19.92;9.40;;;;;;;;;;4981251;28;20093;-72
2022/02/11 15:59:13;;;;;;;17.50;10.80;;;;;;;;;;4976603;28;20412;-72
2022/02/11 16:01:39;;;;;;;18.35;8.32;;;;;;;;;;4994499;28;20146;-70
2022/02/11 16:04:07;;;;;;;13.73;6.57;;;;;;;;;;4977104;28;20038;-78
2022/02/11 16:06:33;;;;;;;22.67;11.07;;;;;;;;;;4998217;28;20026;-74
2022/02/11 16:08:59;;;;;;;18.95;10.75;;;;;;;;;;5004817;28;20030;-73
2022/02/11 16:11:26;;;;;;;22.77;12.18;;;;;;;;;;4999263;28;20613;-73
2022/02/11 16:13:52;;;;;;;23.25;12.48;;;;;;;;;;4994576;28;20062;-72
2022/02/11 16:16:18;;;;;;;18.40;8.70;;;;;;;;;;4980414;28;20057;-76
2022/02/11 16:18:44;;;;;;;21.50;10.38;;;;;;;;;;4990389;28;20189;-73
2022/02/11 16:21:10;;;;;;;29.27;13.95;;;;;;;;;;4977635;28;20030;-77
2022/02/11 16:23:40;;;;;;;25.95;11.13;;;;;;;;;;4977237;28;20070;-71
2022/02/11 16:26:07;;;;;;;29.38;16.13;;;;;;;;;;4975922;28;20109;-71
2022/02/11 16:28:33;;;;;;;16.20;6.85;;;;;;;;;;4958996;28;20174;-72
2022/02/11 16:31:15;;;;;;;16.27;6.53;;;;;;;;;;4974862;28;20047;-75
2022/02/11 16:33:42;;;;;;;15.88;6.10;;;;;;;;;;4966964;28;20142;-71
2022/02/11 16:36:08;;;;;;;35.35;12.43;;;;;;;;;;4971756;28;20153;-71
2022/02/11 16:38:34;;;;;;;18.70;8.80;;;;;;;;;;4963307;28;20050;-73
2022/02/11 16:41:00;;;;;;;23.80;9.63;;;;;;;;;;4971220;28;20030;-71
2022/02/11 16:43:26;;;;;;;19.15;8.10;;;;;;;;;;4963241;28;20035;-74
2022/02/11 16:45:55;;;;;;;20.15;7.50;;;;;;;;;;4971127;28;20041;-71
2022/02/11 16:48:23;;;;;;;16.35;7.82;;;;;;;;;;4966299;28;20051;-72
2022/02/11 16:50:49;;;;;;;23.75;9.70;;;;;;;;;;4948208;28;20062;-72
2022/02/11 16:53:15;;;;;;;26.23;10.20;;;;;;;;;;4962667;28;20020;-71
2022/02/11 16:55:43;;;;;;;27.20;17.40;;;;;;;;;;4966418;28;20039;-73
2022/02/11 16:58:10;;;;;;;22.05;9.18;;;;;;;;;;4976003;28;20089;-77
2022/02/11 17:00:36;;;;;;;25.92;10.48;;;;;;;;;;4969221;28;20027;-77
2022/02/11 17:03:14;;;;;;;17.08;8.00;;;;;;;;;;4982476;28;20015;-76
2022/02/11 17:05:45;;;;;;;19.65;8.40;;;;;;;;;;4939901;28;20041;-77
2022/02/11 17:08:12;;;;;;;21.38;8.88;;;;;;;;;;4993009;28;20023;-76
2022/02/11 17:10:44;;;;;;;24.20;8.25;;;;;;;;;;4994638;28;20019;-78
2022/02/11 17:13:20;;;;;;;26.38;12.95;;;;;;;;;;4974154;28;20050;-78
2022/02/11 17:15:47;;;;;;;20.02;7.80;;;;;;;;;;4940700;29;20047;-78
2022/02/11 17:18:16;;;;;;;23.52;10.73;;;;;;;;;;4965128;28;20039;-76
2022/02/11 17:20:46;;;;;;;21.58;8.90;;;;;;;;;;4952524;29;20047;-79
2022/02/11 17:23:17;;;;;;;19.33;7.88;;;;;;;;;;4958398;29;20038;-75
2022/02/11 17:28:38;;;;;;;27.13;13.25;;;;;;;;;;4966332;29;20037;-71
2022/02/11 17:31:04;;;;;;;27.52;12.40;;;;;;;;;;4957076;29;20047;-74
2022/02/11 17:33:30;;;;;;;27.80;12.52;;;;;;;;;;4960535;29;20027;-76
2022/02/11 17:36:01;;;;;;;36.13;23.23;;;;;;;;;;4957851;29;20063;-75
2022/02/11 17:38:31;;;;;;;18.45;9.68;;;;;;;;;;4945981;29;20041;-73
2022/02/11 17:40:58;;;;;;;30.98;11.85;;;;;;;;;;4956189;29;20104;-74
2022/02/11 17:43:25;;;;;;;30.20;15.32;;;;;;;;;;4958615;29;20050;-73
2022/02/11 17:45:52;;;;;;;19.25;10.18;;;;;;;;;;4952319;28;20032;-74
2022/02/11 17:48:19;;;;;;;23.40;10.73;;;;;;;;;;4983715;28;20119;-71
2022/02/11 17:50:45;;;;;;;22.23;9.52;;;;;;;;;;4980306;28;20034;-76
2022/02/11 17:53:11;;;;;;;21.02;10.85;;;;;;;;;;4971464;28;20065;-72
2022/02/11 17:55:37;;;;;;;25.13;11.88;;;;;;;;;;4976001;28;20026;-75
2022/02/11 17:58:04;;;;;;;24.95;11.43;;;;;;;;;;4975256;28;20049;-75
2022/02/11 18:00:31;;;;;;;22.95;11.60;;;;;;;;;;4977231;28;20395;-74
2022/02/11 18:02:57;;;;;;;27.35;12.55;;;;;;;;;;4977126;28;20031;-75
2022/02/11 18:05:23;;;;;;;30.23;14.23;;;;;;;;;;4958879;28;20047;-75
2022/02/11 18:07:52;;;;;;;31.70;15.32;;;;;;;;;;4975601;28;20031;-75
2022/02/11 18:10:19;;;;;;;30.65;14.50;;;;;;;;;;4975577;28;20053;-76
2022/02/11 18:12:46;;;;;;;26.20;13.23;;;;;;;;;;4957324;28;20039;-75
2022/02/11 18:15:13;;;;;;;30.40;14.63;;;;;;;;;;4975969;28;20026;-75
2022/02/11 18:17:39;;;;;;;33.70;13.80;;;;;;;;;;4972997;28;20114;-75
2022/02/11 18:20:07;;;;;;;31.15;14.65;;;;;;;;;;4976389;28;20031;-77
2022/02/11 18:22:33;;;;;;;26.05;11.85;;;;;;;;;;4960665;28;20046;-73
2022/02/11 18:24:59;;;;;;;23.83;10.20;;;;;;;;;;4977090;28;20026;-75
2022/02/11 18:27:25;;;;;;;18.52;9.48;;;;;;;;;;4980386;28;20073;-75
2022/02/11 18:29:52;;;;;;;26.67;10.20;;;;;;;;;;4982497;28;20030;-73
2022/02/11 18:32:19;;;;;;;20.42;9.27;;;;;;;;;;4976947;28;20397;-73
2022/02/11 18:34:46;;;;;;;17.30;9.43;;;;;;;;;;4970410;28;20023;-76
2022/02/11 18:37:12;;;;;;;27.10;10.85;;;;;;;;;;4972350;28;20026;-74
2022/02/11 18:39:39;;;;;;;16.88;9.13;;;;;;;;;;4978663;28;20578;-74
2022/02/11 18:42:06;;;;;;;19.33;8.68;;;;;;;;;;4981331;28;20066;-73
2022/02/11 18:44:32;;;;;;;21.75;10.05;;;;;;;;;;4979645;28;20031;-75
2022/02/11 18:47:00;;;;;;;17.25;8.05;;;;;;;;;;4973732;28;20087;-76
2022/02/11 18:49:29;;;;;;;15.65;8.90;;;;;;;;;;4991891;28;20046;-77
2022/02/11 18:51:58;;;;;;;20.58;9.98;;;;;;;;;;4958838;28;20023;-76
2022/02/11 18:54:26;;;;;;;20.83;8.85;;;;;;;;;;4974993;28;20041;-76
2022/02/11 18:56:58;;;;;;;22.33;9.52;;;;;;;;;;4982303;28;20030;-78
2022/02/11 19:02:21;;;;;;;19.85;9.15;;;;;;;;;;4982275;28;20085;-77
2022/02/11 19:04:48;;;;;;;14.35;7.68;;;;;;;;;;4979149;28;20030;-78
2022/02/11 19:07:15;;;;;;;16.17;8.23;;;;;;;;;;4982054;28;20037;-76
2022/02/11 19:09:47;;;;;;;15.00;8.70;;;;;;;;;;4982937;28;20026;-76